createdAt,value
2019-05-05T00:01:19.682Z,9.70
2019-05-05T00:03:51.806Z,9.70
2019-05-05T00:06:22.294Z,9.80
2019-05-05T00:08:54.739Z,9.70
2019-05-05T00:11:38.902Z,9.70
2019-05-05T00:14:27.390Z,9.70
2019-05-05T00:16:59.566Z,9.70
2019-05-05T00:19:33.242Z,9.70
2019-05-05T00:22:04.424Z,9.70
2019-05-05T00:24:35.081Z,9.70
2019-05-05T00:27:05.861Z,9.60
2019-05-05T00:29:36.340Z,9.70
2019-05-05T00:32:06.883Z,9.70
2019-05-05T00:34:37.446Z,9.60
2019-05-05T00:37:07.919Z,9.60
2019-05-05T00:39:38.485Z,9.60
2019-05-05T00:42:09.312Z,9.60
2019-05-05T00:44:39.843Z,9.60
2019-05-05T00:47:14.594Z,9.60
2019-05-05T00:49:49.295Z,9.60
2019-05-05T00:52:18.986Z,9.60
2019-05-05T00:54:49.464Z,9.60
2019-05-05T00:57:19.962Z,9.60
2019-05-05T00:59:50.428Z,9.50
2019-05-05T01:02:26.789Z,9.50
2019-05-05T01:05:01.830Z,9.50
2019-05-05T01:07:32.291Z,9.50
2019-05-05T01:10:04.848Z,9.50
2019-05-05T01:12:35.121Z,9.40
2019-05-05T01:15:07.006Z,9.40
2019-05-05T01:17:37.466Z,9.40
2019-05-05T01:20:08.166Z,9.40
2019-05-05T01:22:38.725Z,9.40
2019-05-05T01:25:09.951Z,9.40
2019-05-05T01:27:40.583Z,9.40
2019-05-05T01:30:15.422Z,9.40
2019-05-05T01:33:05.655Z,9.40
2019-05-05T01:35:36.201Z,9.40
2019-05-05T01:38:10.912Z,9.40
2019-05-05T01:40:44.687Z,9.40
2019-05-05T01:43:15.235Z,9.40
2019-05-05T01:45:46.363Z,9.40
2019-05-05T01:48:16.819Z,9.40
2019-05-05T01:50:47.322Z,9.40
2019-05-05T01:53:17.780Z,9.40
2019-05-05T01:55:48.565Z,9.40
2019-05-05T01:58:19.003Z,9.40
2019-05-05T02:00:49.578Z,9.30
2019-05-05T02:03:20.200Z,9.30
2019-05-05T02:05:50.645Z,9.30
2019-05-05T02:08:21.132Z,9.30
2019-05-05T02:10:54.795Z,9.30
2019-05-05T02:13:25.603Z,9.30
2019-05-05T02:15:56.062Z,9.30
2019-05-05T02:18:26.672Z,9.30
2019-05-05T02:21:04.968Z,9.30
2019-05-05T02:23:36.811Z,9.30
2019-05-05T02:26:08.543Z,9.30
2019-05-05T02:28:49.887Z,9.30
2019-05-05T02:31:25.515Z,9.30
2019-05-05T02:33:57.045Z,9.30
2019-05-05T02:36:27.723Z,9.30
2019-05-05T02:38:58.253Z,9.30
2019-05-05T02:41:30.102Z,9.30
2019-05-05T02:44:00.915Z,9.30
2019-05-05T02:46:36.306Z,9.30
2019-05-05T02:49:07.534Z,9.20
2019-05-05T02:51:39.334Z,9.20
2019-05-05T02:54:09.884Z,9.20
2019-05-05T02:56:49.044Z,9.20
2019-05-05T02:59:25.220Z,9.20
2019-05-05T03:01:58.675Z,9.20
2019-05-05T03:04:29.900Z,9.20
2019-05-05T03:07:04.742Z,9.20
2019-05-05T03:09:36.079Z,9.20
2019-05-05T03:12:06.765Z,9.20
2019-05-05T03:14:38.797Z,9.20
2019-05-05T03:17:14.286Z,9.20
2019-05-05T03:19:45.164Z,9.20
2019-05-05T03:22:16.495Z,9.20
2019-05-05T03:24:47.621Z,9.20
2019-05-05T03:27:18.148Z,9.20
2019-05-05T03:29:48.710Z,9.20
2019-05-05T03:32:20.425Z,9.20
2019-05-05T03:34:51.274Z,9.20
2019-05-05T03:37:21.768Z,9.20
2019-05-05T03:39:54.601Z,9.20
2019-05-05T03:42:26.878Z,9.20
2019-05-05T03:44:59.077Z,9.20
2019-05-05T03:47:29.606Z,9.20
2019-05-05T03:50:00.329Z,9.20
2019-05-05T03:52:30.983Z,9.20
2019-05-05T03:55:03.665Z,9.20
2019-05-05T03:57:34.399Z,9.20
2019-05-05T04:00:07.840Z,9.20
2019-05-05T04:02:39.974Z,9.30
2019-05-05T04:05:29.060Z,9.30
2019-05-05T04:07:59.975Z,9.30
2019-05-05T04:10:30.506Z,9.20
2019-05-05T04:13:04.638Z,9.20
2019-05-05T04:15:38.557Z,9.20
2019-05-05T04:18:14.599Z,9.20
2019-05-05T04:20:45.411Z,9.30
2019-05-05T04:23:15.872Z,9.30
2019-05-05T04:25:46.369Z,9.30
2019-05-05T04:28:16.822Z,9.30
2019-05-05T04:30:47.304Z,9.30
2019-05-05T04:33:17.832Z,9.30
2019-05-05T04:35:48.357Z,9.30
2019-05-05T04:38:19.471Z,9.30
2019-05-05T04:40:49.959Z,9.30
2019-05-05T04:43:21.948Z,9.30
2019-05-05T04:45:54.148Z,9.30
2019-05-05T04:48:26.385Z,9.30
2019-05-05T04:51:01.158Z,9.30
2019-05-05T04:53:39.054Z,9.30
2019-05-05T04:56:09.517Z,9.30
2019-05-05T04:58:39.975Z,9.30
2019-05-05T05:01:10.468Z,9.30
2019-05-05T05:03:45.014Z,9.30
2019-05-05T05:06:17.203Z,9.30
2019-05-05T05:08:47.688Z,9.40
2019-05-05T05:11:18.138Z,9.40
2019-05-05T05:13:48.763Z,9.40
2019-05-05T05:16:19.224Z,9.40
2019-05-05T05:18:49.726Z,9.40
2019-05-05T05:21:20.178Z,9.40
2019-05-05T05:23:50.687Z,9.40
2019-05-05T05:26:21.151Z,9.50
2019-05-05T05:28:53.379Z,9.40
2019-05-05T05:31:24.484Z,9.50
2019-05-05T05:33:55.126Z,9.50
2019-05-05T05:36:25.612Z,9.50
2019-05-05T05:38:57.743Z,9.50
2019-05-05T05:41:43.703Z,9.50
2019-05-05T05:44:19.836Z,9.50
2019-05-05T05:46:54.681Z,9.50
2019-05-05T05:49:26.382Z,9.50
2019-05-05T05:51:56.875Z,9.50
2019-05-05T05:54:28.451Z,9.60
2019-05-05T05:56:58.968Z,9.60
2019-05-05T05:59:31.100Z,9.60
2019-05-05T06:02:09.919Z,9.60
2019-05-05T06:04:34.337Z,9.60
2019-05-05T06:07:05.033Z,9.70
2019-05-05T06:09:39.727Z,9.70
2019-05-05T06:12:10.797Z,9.70
2019-05-05T06:14:44.761Z,9.80
2019-05-05T06:17:15.413Z,9.80
2019-05-05T06:19:45.894Z,9.80
2019-05-05T06:22:28.110Z,9.90
2019-05-05T06:24:54.497Z,10.00
2019-05-05T06:27:25.002Z,9.90
2019-05-05T06:29:55.477Z,9.90
2019-05-05T06:32:26.449Z,10.00
2019-05-05T06:34:56.940Z,10.00
2019-05-05T06:37:27.432Z,10.10
2019-05-05T06:39:59.620Z,10.10
2019-05-05T06:42:31.750Z,10.10
2019-05-05T06:45:14.378Z,10.20
2019-05-05T06:47:44.866Z,10.20
2019-05-05T06:50:15.450Z,10.30
2019-05-05T06:52:47.187Z,10.30
2019-05-05T06:55:17.706Z,10.30
2019-05-05T06:57:48.210Z,10.40
2019-05-05T07:00:18.816Z,10.40
2019-05-05T07:02:49.343Z,10.50
2019-05-05T07:05:19.817Z,10.50
2019-05-05T07:07:50.310Z,10.50
2019-05-05T07:10:20.776Z,10.60
2019-05-05T07:12:51.275Z,10.60
2019-05-05T07:15:23.721Z,10.60
2019-05-05T07:17:54.029Z,10.70
2019-05-05T07:20:24.642Z,10.70
2019-05-05T07:23:01.330Z,10.60
2019-05-05T07:25:39.863Z,10.60
2019-05-05T07:27:59.635Z,10.60
2019-05-05T07:30:30.158Z,10.60
2019-05-05T07:33:00.642Z,10.60
2019-05-05T07:35:55.350Z,10.60
2019-05-05T07:38:17.177Z,10.50
2019-05-05T07:40:47.703Z,10.50
2019-05-05T07:43:18.198Z,10.50
2019-05-05T07:45:48.655Z,10.50
2019-05-05T07:48:19.150Z,10.50
2019-05-05T07:51:01.181Z,10.50
2019-05-05T07:53:24.320Z,10.50
2019-05-05T07:55:54.533Z,10.50
2019-05-05T07:58:25.023Z,10.50
2019-05-05T08:00:55.517Z,10.50
2019-05-05T08:03:25.978Z,10.40
2019-05-05T08:05:56.548Z,10.40
2019-05-05T08:08:27.004Z,10.40
2019-05-05T08:10:57.492Z,10.40
2019-05-05T08:13:27.960Z,10.30
2019-05-05T08:16:00.643Z,10.30
2019-05-05T08:18:34.601Z,10.20
2019-05-05T08:21:06.834Z,10.20
2019-05-05T08:23:38.967Z,10.20
2019-05-05T08:26:09.210Z,10.20
2019-05-05T08:28:50.431Z,10.10
2019-05-05T08:31:28.083Z,10.10
2019-05-05T08:33:58.553Z,10.10
2019-05-05T08:36:29.054Z,10.00
2019-05-05T08:38:59.515Z,10.00
2019-05-05T08:41:30.013Z,10.00
2019-05-05T08:44:00.481Z,10.10
2019-05-05T08:46:30.978Z,10.10
2019-05-05T08:49:01.511Z,10.10
2019-05-05T08:51:33.840Z,10.20
2019-05-05T08:54:04.164Z,10.20
2019-05-05T08:56:34.644Z,10.20
2019-05-05T08:59:05.177Z,10.20
2019-05-05T09:01:35.673Z,10.20
2019-05-05T09:04:06.133Z,10.20
2019-05-05T09:06:37.807Z,10.20
2019-05-05T09:09:09.013Z,10.20
2019-05-05T09:11:39.513Z,10.20
2019-05-05T09:14:10.558Z,10.30
2019-05-05T09:16:41.049Z,10.20
2019-05-05T09:19:18.935Z,10.20
2019-05-05T09:21:49.414Z,10.30
2019-05-05T09:24:25.260Z,10.40
2019-05-05T09:27:14.177Z,10.40
2019-05-05T09:29:46.125Z,10.40
2019-05-05T09:32:16.613Z,10.30
2019-05-05T09:34:47.068Z,10.20
2019-05-05T09:37:17.552Z,10.10
2019-05-05T09:39:48.084Z,10.10
2019-05-05T09:42:18.582Z,10.00
2019-05-05T09:44:49.043Z,10.10
2019-05-05T09:47:19.611Z,10.10
2019-05-05T09:49:50.062Z,10.10
2019-05-05T09:52:20.563Z,10.10
2019-05-05T09:54:51.022Z,10.10
2019-05-05T09:57:23.534Z,10.10
2019-05-05T09:59:55.323Z,10.20
2019-05-05T10:02:26.696Z,10.20
2019-05-05T10:04:57.129Z,10.00
2019-05-05T10:07:27.620Z,10.00
2019-05-05T10:09:58.124Z,10.00
2019-05-05T10:12:28.708Z,9.90
2019-05-05T10:14:59.188Z,9.90
2019-05-05T10:17:29.644Z,9.60
2019-05-05T10:20:00.126Z,9.20
2019-05-05T10:22:30.587Z,9.20
2019-05-05T10:25:18.732Z,9.20
2019-05-05T10:27:49.368Z,9.20
2019-05-05T10:30:20.271Z,9.30
2019-05-05T10:32:50.782Z,9.30
2019-05-05T10:35:21.310Z,9.40
2019-05-05T10:37:51.859Z,9.40
2019-05-05T10:40:24.123Z,9.30
2019-05-05T10:42:54.580Z,9.30
2019-05-05T10:45:25.505Z,9.30
2019-05-05T10:47:56.024Z,9.30
2019-05-05T10:50:26.503Z,9.40
2019-05-05T10:52:57.068Z,9.40
2019-05-05T10:55:27.635Z,9.40
2019-05-05T10:57:58.195Z,9.50
2019-05-05T11:00:48.286Z,9.30
2019-05-05T11:03:18.870Z,9.20
2019-05-05T11:05:49.318Z,9.00
2019-05-05T11:08:20.256Z,9.00
2019-05-05T11:10:50.746Z,8.90
2019-05-05T11:13:21.200Z,9.00
2019-05-05T11:15:51.704Z,9.10
2019-05-05T11:18:23.782Z,9.00
2019-05-05T11:20:54.938Z,9.00
2019-05-05T11:23:25.591Z,8.90
2019-05-05T11:25:56.110Z,8.90
2019-05-05T11:28:26.613Z,8.90
2019-05-05T11:30:57.077Z,9.10
2019-05-05T11:33:34.276Z,9.10
2019-05-05T11:36:06.763Z,9.10
2019-05-05T11:38:37.252Z,9.10
2019-05-05T11:41:07.709Z,9.10
2019-05-05T11:43:38.208Z,9.30
2019-05-05T11:46:08.777Z,9.30
2019-05-05T11:48:39.271Z,9.40
2019-05-05T11:51:09.718Z,9.40
2019-05-05T11:53:40.208Z,9.40
2019-05-05T11:56:10.667Z,9.50
2019-05-05T11:58:41.175Z,9.50
2019-05-05T12:01:13.705Z,9.60
2019-05-05T12:03:44.382Z,9.60
2019-05-05T12:06:15.095Z,9.70
2019-05-05T12:08:46.030Z,9.70
2019-05-05T12:11:16.836Z,9.70
2019-05-05T12:13:47.382Z,9.50
2019-05-05T12:16:19.508Z,9.50
2019-05-05T12:18:49.966Z,9.50
2019-05-05T12:21:20.472Z,9.20
2019-05-05T12:23:50.930Z,9.10
2019-05-05T12:26:30.059Z,8.90
2019-05-05T12:29:02.173Z,9.00
2019-05-05T12:31:34.299Z,9.00
2019-05-05T12:34:04.839Z,9.00
2019-05-05T12:36:35.306Z,9.00
2019-05-05T12:39:09.399Z,9.10
2019-05-05T12:41:39.900Z,9.20
2019-05-05T12:44:14.170Z,9.20
2019-05-05T12:46:45.818Z,9.00
2019-05-05T12:49:16.267Z,9.00
2019-05-05T12:51:46.809Z,9.00
2019-05-05T12:54:17.302Z,9.10
2019-05-05T12:56:47.751Z,9.10
2019-05-05T12:59:22.350Z,9.30
2019-05-05T13:01:54.693Z,9.30
2019-05-05T13:04:25.112Z,9.40
2019-05-05T13:06:55.605Z,9.30
2019-05-05T13:09:26.619Z,9.10
2019-05-05T13:11:57.070Z,9.20
2019-05-05T13:14:27.618Z,9.10
2019-05-05T13:16:58.085Z,9.00
2019-05-05T13:19:46.468Z,9.00
2019-05-05T13:22:27.457Z,9.00
2019-05-05T13:25:04.488Z,9.00
2019-05-05T13:27:36.364Z,9.10
2019-05-05T13:30:10.288Z,8.80
2019-05-05T13:32:40.737Z,8.80
2019-05-05T13:35:11.454Z,8.80
2019-05-05T13:37:41.902Z,8.70
2019-05-05T13:40:12.784Z,8.70
2019-05-05T13:42:44.970Z,8.70
2019-05-05T13:45:19.210Z,8.70
2019-05-05T13:47:49.691Z,8.60
2019-05-05T13:50:25.039Z,8.50
2019-05-05T13:52:55.492Z,8.40
2019-05-05T13:55:25.983Z,8.40
2019-05-05T13:57:56.437Z,8.40
2019-05-05T14:00:27.082Z,8.40
2019-05-05T14:02:57.594Z,8.40
2019-05-05T14:05:28.071Z,8.30
2019-05-05T14:07:58.525Z,8.40
2019-05-05T14:10:29.065Z,8.30
2019-05-05T14:12:59.555Z,8.30
2019-05-05T14:15:30.026Z,8.20
2019-05-05T14:18:00.473Z,8.20
2019-05-05T14:20:31.033Z,8.00
2019-05-05T14:23:03.722Z,7.90
2019-05-05T14:25:34.131Z,8.00
2019-05-05T14:28:04.819Z,7.90
2019-05-05T14:30:37.009Z,7.90
2019-05-05T14:33:09.314Z,7.90
2019-05-05T14:35:39.564Z,7.90
2019-05-05T14:38:11.653Z,8.00
2019-05-05T14:40:44.497Z,8.00
2019-05-05T14:43:16.785Z,7.90
2019-05-05T14:45:46.465Z,8.00
2019-05-05T14:48:16.908Z,8.00
2019-05-05T14:50:47.405Z,8.00
2019-05-05T14:53:17.858Z,8.10
2019-05-05T14:55:49.584Z,8.00
2019-05-05T14:58:20.030Z,8.00
2019-05-05T15:00:50.510Z,8.00
2019-05-05T15:03:21.000Z,8.00
2019-05-05T15:06:03.875Z,8.00
2019-05-05T15:08:38.155Z,8.00
2019-05-05T15:11:10.282Z,8.00
2019-05-05T15:13:40.724Z,8.00
2019-05-05T15:16:11.358Z,8.00
2019-05-05T15:18:41.811Z,7.90
2019-05-05T15:21:12.420Z,7.90
2019-05-05T15:23:43.670Z,7.90
2019-05-05T15:26:14.346Z,7.90
2019-05-05T15:28:52.228Z,8.00
2019-05-05T15:31:17.928Z,8.00
2019-05-05T15:33:48.500Z,8.00
2019-05-05T15:36:18.978Z,8.00
2019-05-05T15:38:49.454Z,8.00
2019-05-05T15:41:20.013Z,7.90
2019-05-05T15:43:50.479Z,7.80
2019-05-05T15:46:20.983Z,7.80
2019-05-05T15:48:51.446Z,7.80
2019-05-05T15:51:23.589Z,7.70
2019-05-05T15:53:54.826Z,7.70
2019-05-05T15:56:25.327Z,7.70
2019-05-05T15:58:55.776Z,7.60
2019-05-05T16:01:26.272Z,7.60
2019-05-05T16:03:56.763Z,7.60
2019-05-05T16:06:27.231Z,7.60
2019-05-05T16:08:57.724Z,7.60
2019-05-05T16:11:28.163Z,7.60
2019-05-05T16:14:01.249Z,7.60
2019-05-05T16:16:51.541Z,7.60
2019-05-05T16:19:24.773Z,7.60
2019-05-05T16:21:57.453Z,7.60
2019-05-05T16:24:36.486Z,7.50
2019-05-05T16:27:18.698Z,7.40
2019-05-05T16:29:39.402Z,7.30
2019-05-05T16:32:19.602Z,7.30
2019-05-05T16:34:42.070Z,7.30
2019-05-05T16:37:14.331Z,7.30
2019-05-05T16:39:44.892Z,7.30
2019-05-05T16:42:15.436Z,7.30
2019-05-05T16:44:45.888Z,5.80
2019-05-05T16:47:16.365Z,7.30
2019-05-05T16:49:46.841Z,7.30
2019-05-05T16:52:18.944Z,7.30
2019-05-05T16:55:07.174Z,7.30
2019-05-05T16:57:37.618Z,7.30
2019-05-05T17:00:08.880Z,7.20
2019-05-05T17:02:39.364Z,7.20
2019-05-05T17:05:10.550Z,7.30
2019-05-05T17:07:41.078Z,7.20
2019-05-05T17:10:13.855Z,7.20
2019-05-05T17:12:44.651Z,7.20
2019-05-05T17:15:23.080Z,7.20
2019-05-05T17:17:55.222Z,7.20
2019-05-05T17:20:30.203Z,7.10
2019-05-05T17:23:05.423Z,7.10
2019-05-05T17:25:35.909Z,7.10
2019-05-05T17:28:07.270Z,7.10
2019-05-05T17:30:37.764Z,7.10
2019-05-05T17:33:08.305Z,7.10
2019-05-05T17:35:38.818Z,7.10
2019-05-05T17:38:10.928Z,7.10
2019-05-05T17:40:44.012Z,7.10
2019-05-05T17:43:25.737Z,7.10
2019-05-05T17:45:55.096Z,7.00
2019-05-05T17:48:44.184Z,7.00
2019-05-05T17:51:17.447Z,6.90
2019-05-05T17:53:56.404Z,6.90
2019-05-05T17:56:26.885Z,6.90
2019-05-05T17:58:57.390Z,6.90
2019-05-05T18:01:28.008Z,6.90
2019-05-05T18:03:58.515Z,6.90
2019-05-05T18:06:28.834Z,6.80
2019-05-05T18:09:17.315Z,6.80
2019-05-05T18:11:53.587Z,6.80
2019-05-05T18:14:28.470Z,6.80
2019-05-05T18:16:59.037Z,6.90
2019-05-05T18:19:29.499Z,6.90
2019-05-05T18:21:59.995Z,6.90
2019-05-05T18:24:30.499Z,6.90
2019-05-05T18:27:00.967Z,6.90
2019-05-05T18:29:31.430Z,6.90
2019-05-05T18:32:04.200Z,6.90
2019-05-05T18:34:34.942Z,7.00
2019-05-05T18:37:05.407Z,7.00
2019-05-05T18:39:35.899Z,7.00
2019-05-05T18:42:08.021Z,7.00
2019-05-05T18:44:40.155Z,7.00
2019-05-05T18:47:18.783Z,7.00
2019-05-05T18:49:49.517Z,6.90
2019-05-05T18:52:19.980Z,6.90
2019-05-05T18:54:50.471Z,6.90
2019-05-05T18:57:20.921Z,7.00
2019-05-05T18:59:51.402Z,6.90
2019-05-05T19:02:30.679Z,6.90
2019-05-05T19:05:19.200Z,7.00
2019-05-05T19:07:55.552Z,6.90
2019-05-05T19:10:24.237Z,6.90
2019-05-05T19:12:54.901Z,6.90
2019-05-05T19:15:25.470Z,7.00
2019-05-05T19:17:55.938Z,6.90
2019-05-05T19:20:30.981Z,7.00
2019-05-05T19:23:05.572Z,7.00
2019-05-05T19:25:35.828Z,7.00
2019-05-05T19:28:08.252Z,7.00
2019-05-05T19:30:38.836Z,7.00
2019-05-05T19:33:09.330Z,7.00
2019-05-05T19:35:43.972Z,7.00
2019-05-05T19:38:15.567Z,7.00
2019-05-05T19:40:44.180Z,7.10
2019-05-05T19:43:14.631Z,7.00
2019-05-05T19:45:45.080Z,7.00
2019-05-05T19:48:15.591Z,7.10
2019-05-05T19:50:50.518Z,7.10
2019-05-05T19:53:24.949Z,7.10
2019-05-05T19:55:56.557Z,7.10
2019-05-05T19:58:27.023Z,7.00
2019-05-05T20:00:59.187Z,7.00
2019-05-05T20:03:29.838Z,7.00
2019-05-05T20:06:00.442Z,7.10
2019-05-05T20:08:40.316Z,7.10
2019-05-05T20:11:04.851Z,7.10
2019-05-05T20:13:35.274Z,7.10
2019-05-05T20:16:22.618Z,7.10
2019-05-05T20:18:54.674Z,7.10
2019-05-05T20:21:25.488Z,7.10
2019-05-05T20:23:55.960Z,7.10
2019-05-05T20:26:26.441Z,7.10
2019-05-05T20:29:09.663Z,7.10
2019-05-05T20:31:29.159Z,7.10
2019-05-05T20:34:01.286Z,7.10
2019-05-05T20:36:36.117Z,7.00
2019-05-05T20:39:07.410Z,7.00
2019-05-05T20:41:37.900Z,7.10
2019-05-05T20:44:08.356Z,7.10
2019-05-05T20:46:38.843Z,7.10
2019-05-05T20:49:09.294Z,7.10
2019-05-05T20:51:39.778Z,7.10
2019-05-05T20:54:10.245Z,7.10
2019-05-05T20:56:41.065Z,7.10
2019-05-05T20:59:23.811Z,7.20
2019-05-05T21:01:43.964Z,7.20
2019-05-05T21:04:14.608Z,7.20
2019-05-05T21:06:45.103Z,7.20
2019-05-05T21:09:15.555Z,7.20
2019-05-05T21:11:46.045Z,7.20
2019-05-05T21:14:16.524Z,7.20
2019-05-05T21:16:47.004Z,7.10
2019-05-05T21:19:17.460Z,7.10
2019-05-05T21:21:49.593Z,7.10
2019-05-05T21:24:20.056Z,7.10
2019-05-05T21:26:52.191Z,7.20
2019-05-05T21:29:23.725Z,7.20
2019-05-05T21:31:54.943Z,7.30
2019-05-05T21:34:25.606Z,7.20
2019-05-05T21:36:56.113Z,7.20
2019-05-05T21:39:26.575Z,7.20
2019-05-05T21:41:57.059Z,7.20
2019-05-05T21:44:27.514Z,7.20
2019-05-05T21:46:59.307Z,7.20
2019-05-05T21:49:29.932Z,7.20
2019-05-05T21:52:05.230Z,7.20
2019-05-05T21:54:38.571Z,7.20
2019-05-05T21:57:14.039Z,7.20
2019-05-05T21:59:54.850Z,7.30
2019-05-05T22:02:17.743Z,7.30
2019-05-05T22:04:48.190Z,7.30
2019-05-05T22:07:18.733Z,7.30
2019-05-05T22:09:49.182Z,7.30
2019-05-05T22:12:19.674Z,7.30
2019-05-05T22:14:50.154Z,7.20
2019-05-05T22:17:20.647Z,7.30
2019-05-05T22:20:11.027Z,7.30
2019-05-05T22:22:44.967Z,7.20
2019-05-05T22:25:15.394Z,7.20
2019-05-05T22:27:45.873Z,7.20
2019-05-05T22:30:16.589Z,7.20
2019-05-05T22:32:47.090Z,7.20
2019-05-05T22:35:17.706Z,7.30
2019-05-05T22:37:48.163Z,7.30
2019-05-05T22:40:24.426Z,7.20
2019-05-05T22:42:54.758Z,7.20
2019-05-05T22:45:25.505Z,7.20
2019-05-05T22:47:56.017Z,7.20
2019-05-05T22:50:26.591Z,7.20
2019-05-05T22:52:57.014Z,7.10
2019-05-05T22:55:27.509Z,7.10
2019-05-05T22:57:57.983Z,7.10
2019-05-05T23:00:29.774Z,7.10
2019-05-05T23:03:18.452Z,7.10
2019-05-05T23:05:50.565Z,7.10
2019-05-05T23:08:21.014Z,7.10
2019-05-05T23:10:51.496Z,7.10
2019-05-05T23:13:21.954Z,7.10
2019-05-05T23:15:56.946Z,7.10
2019-05-05T23:18:28.362Z,7.10
2019-05-05T23:20:58.681Z,7.10
2019-05-05T23:23:46.840Z,7.10
2019-05-05T23:26:21.592Z,7.00
2019-05-05T23:28:53.714Z,7.00
2019-05-05T23:31:24.392Z,7.00
2019-05-05T23:33:54.993Z,7.00
2019-05-05T23:36:25.398Z,7.00
2019-05-05T23:38:55.885Z,7.00
2019-05-05T23:41:26.336Z,7.00
2019-05-05T23:43:56.819Z,6.90
2019-05-05T23:46:27.272Z,6.90
2019-05-05T23:48:57.761Z,6.90
2019-05-05T23:51:28.216Z,6.90
2019-05-05T23:53:58.694Z,6.90
2019-05-05T23:56:29.156Z,6.90
2019-05-05T23:58:59.632Z,6.90
